createdAt,value
2018-11-03T00:01:42.842Z,71.20
2018-11-03T00:04:11.548Z,70.90
2018-11-03T00:06:41.149Z,70.60
2018-11-03T00:09:11.124Z,70.40
2018-11-03T00:11:40.238Z,70.50
2018-11-03T00:19:06.931Z,70.70
2018-11-03T00:21:35.835Z,70.80
2018-11-03T00:24:04.566Z,70.60
2018-11-03T00:26:33.331Z,70.50
2018-11-03T00:29:01.972Z,70.30
2018-11-03T00:31:30.784Z,70.30
2018-11-03T00:33:59.445Z,70.50
2018-11-03T00:36:28.204Z,70.30
2018-11-03T00:38:58.061Z,70.20
2018-11-03T00:41:26.642Z,70.20
2018-11-03T00:43:55.378Z,70.00
2018-11-03T00:46:23.917Z,70.00
2018-11-03T00:48:52.558Z,70.20
2018-11-03T00:51:21.055Z,70.20
2018-11-03T00:53:49.753Z,70.20
2018-11-03T00:56:19.104Z,70.20
2018-11-03T00:58:47.915Z,70.20
2018-11-03T01:03:44.706Z,70.30
2018-11-03T01:06:13.234Z,70.30
2018-11-03T01:08:41.833Z,70.50
2018-11-03T01:11:10.416Z,70.80
2018-11-03T01:13:39.025Z,70.30
2018-11-03T01:16:07.601Z,71.10
2018-11-03T01:21:05.305Z,70.90
2018-11-03T01:23:33.915Z,70.80
2018-11-03T01:26:02.530Z,70.80
2018-11-03T01:28:31.151Z,70.90
2018-11-03T01:31:01.059Z,70.30
2018-11-03T01:33:29.803Z,70.70
2018-11-03T01:35:58.430Z,71.00
2018-11-03T01:38:26.988Z,70.80
2018-11-03T01:40:55.598Z,71.30
2018-11-03T01:43:24.245Z,71.20
2018-11-03T01:45:52.895Z,71.30
2018-11-03T01:48:21.636Z,71.30
2018-11-03T01:50:50.237Z,71.30
2018-11-03T01:53:19.216Z,71.10
2018-11-03T01:55:48.079Z,71.20
2018-11-03T01:58:17.073Z,71.40
2018-11-03T02:03:14.486Z,71.20
2018-11-03T02:05:44.076Z,71.30
2018-11-03T02:08:12.714Z,71.60
2018-11-03T02:10:41.357Z,71.30
2018-11-03T02:13:09.928Z,71.50
2018-11-03T02:15:38.551Z,71.50
2018-11-03T02:18:07.147Z,71.30
2018-11-03T02:20:35.815Z,71.40
2018-11-03T02:23:04.471Z,71.30
2018-11-03T02:25:33.685Z,71.40
2018-11-03T02:28:02.623Z,71.00
2018-11-03T02:30:31.249Z,71.10
2018-11-03T02:35:28.109Z,71.00
2018-11-03T02:37:57.396Z,72.10
2018-11-03T02:40:26.007Z,71.00
2018-11-03T02:42:54.615Z,71.10
2018-11-03T02:45:23.245Z,71.30
2018-11-03T02:47:51.913Z,71.40
2018-11-03T02:52:48.792Z,71.30
2018-11-03T03:00:14.314Z,71.20
2018-11-03T03:02:43.086Z,71.40
2018-11-03T03:05:12.018Z,71.40
2018-11-03T03:07:41.112Z,71.40
2018-11-03T03:10:11.871Z,71.20
2018-11-03T03:12:40.712Z,71.60
2018-11-03T03:15:11.579Z,71.60
2018-11-03T03:17:40.841Z,71.40
2018-11-03T03:20:10.944Z,71.30
2018-11-03T03:22:39.810Z,71.20
2018-11-03T03:25:09.446Z,71.70
2018-11-03T03:27:38.069Z,71.60
2018-11-03T03:30:07.057Z,71.60
2018-11-03T03:32:35.776Z,71.80
2018-11-03T03:35:05.011Z,71.90
2018-11-03T03:37:34.735Z,72.00
2018-11-03T03:42:32.475Z,72.30
2018-11-03T03:45:02.856Z,72.10
2018-11-03T03:49:59.960Z,72.50
2018-11-03T03:52:28.707Z,72.30
2018-11-03T03:54:57.565Z,72.00
2018-11-03T03:57:26.439Z,72.20
2018-11-03T03:59:55.073Z,73.00
2018-11-03T04:02:23.953Z,72.40
2018-11-03T04:04:53.740Z,72.30
2018-11-03T04:07:22.609Z,72.60
2018-11-03T04:09:51.245Z,72.70
2018-11-03T04:12:19.760Z,72.70
2018-11-03T04:14:48.549Z,72.50
2018-11-03T04:17:17.130Z,72.00
2018-11-03T04:19:45.705Z,71.90
2018-11-03T04:22:14.252Z,71.40
2018-11-03T04:24:42.934Z,71.70
2018-11-03T04:27:11.657Z,71.90
2018-11-03T04:29:40.370Z,71.60
2018-11-03T04:32:09.088Z,71.50
2018-11-03T04:37:06.195Z,71.60
2018-11-03T04:39:34.835Z,71.50
2018-11-03T04:42:03.791Z,72.00
2018-11-03T04:44:32.416Z,71.90
2018-11-03T04:47:01.053Z,72.30
2018-11-03T04:49:29.803Z,71.80
2018-11-03T04:55:01.033Z,71.90
2018-11-03T04:57:29.617Z,71.80
2018-11-03T05:02:27.230Z,71.70
2018-11-03T05:04:55.804Z,71.30
2018-11-03T05:07:24.354Z,71.30
2018-11-03T05:09:53.021Z,71.40
2018-11-03T05:12:23.615Z,71.70
2018-11-03T05:14:52.285Z,71.60
2018-11-03T05:17:21.924Z,71.60
2018-11-03T05:19:50.664Z,71.60
2018-11-03T05:22:19.515Z,71.60
2018-11-03T05:24:48.423Z,71.60
2018-11-03T05:27:17.418Z,71.80
2018-11-03T05:29:46.077Z,72.10
2018-11-03T05:32:15.889Z,71.90
2018-11-03T05:34:44.561Z,72.20
2018-11-03T05:37:13.305Z,71.80
2018-11-03T05:39:41.906Z,71.70
2018-11-03T05:42:10.477Z,71.60
2018-11-03T05:44:39.116Z,71.40
2018-11-03T05:47:07.702Z,71.50
2018-11-03T05:49:36.277Z,71.60
2018-11-03T05:52:04.974Z,71.60
2018-11-03T05:54:33.648Z,71.40
2018-11-03T05:59:30.598Z,71.30
2018-11-03T06:01:59.187Z,71.30
2018-11-03T06:04:27.818Z,71.30
2018-11-03T06:06:56.908Z,71.30
2018-11-03T06:09:25.557Z,71.10
2018-11-03T06:17:25.835Z,71.40
2018-11-03T06:19:54.527Z,71.50
2018-11-03T06:22:23.194Z,71.40
2018-11-03T06:24:52.016Z,71.20
2018-11-03T06:27:20.805Z,71.00
2018-11-03T06:29:49.431Z,71.10
2018-11-03T06:32:18.209Z,71.00
2018-11-03T06:34:47.011Z,70.70
2018-11-03T06:37:15.829Z,70.30
2018-11-03T06:39:45.919Z,70.60
2018-11-03T06:42:14.773Z,70.40
2018-11-03T06:44:43.591Z,70.20
2018-11-03T06:47:12.415Z,70.20
2018-11-03T06:49:41.187Z,70.20
2018-11-03T06:52:09.974Z,70.20
2018-11-03T06:54:38.758Z,70.20
2018-11-03T06:57:09.160Z,70.40
2018-11-03T06:59:38.851Z,70.50
2018-11-03T07:02:08.337Z,70.50
2018-11-03T07:04:38.186Z,70.90
2018-11-03T07:07:13.536Z,70.90
2018-11-03T07:09:42.579Z,70.90
2018-11-03T07:12:11.648Z,71.00
2018-11-03T07:14:40.628Z,70.70
2018-11-03T07:17:09.626Z,70.70
2018-11-03T07:19:38.495Z,70.80
2018-11-03T07:22:08.748Z,70.60
2018-11-03T07:27:18.595Z,70.70
2018-11-03T07:29:47.391Z,70.60
2018-11-03T07:32:16.411Z,70.10
2018-11-03T07:34:46.234Z,70.00
2018-11-03T07:37:15.978Z,69.70
2018-11-03T07:39:44.573Z,69.80
2018-11-03T07:42:13.273Z,69.90
2018-11-03T07:44:41.980Z,70.00
2018-11-03T07:49:40.104Z,70.40
2018-11-03T07:52:08.986Z,70.20
2018-11-03T07:54:37.908Z,69.70
2018-11-03T07:57:09.322Z,69.60
2018-11-03T07:59:44.165Z,69.40
2018-11-03T08:02:13.224Z,69.10
2018-11-03T08:14:24.799Z,68.60
2018-11-03T08:16:53.501Z,68.50
2018-11-03T08:19:22.139Z,69.10
2018-11-03T08:21:57.653Z,69.30
2018-11-03T08:27:20.252Z,68.80
2018-11-03T08:30:12.566Z,68.60
2018-11-03T08:32:57.611Z,68.20
2018-11-03T08:42:01.822Z,67.60
2018-11-03T10:42:06.374Z,68.50
2018-11-03T10:44:34.969Z,67.90
2018-11-03T10:49:34.357Z,67.40
2018-11-03T10:52:03.136Z,66.40
2018-11-03T10:54:43.847Z,65.40
2018-11-03T10:57:19.566Z,65.00
2018-11-03T10:59:51.694Z,64.70
2018-11-03T11:02:32.764Z,64.50
2018-11-03T11:05:07.101Z,64.20
2018-11-03T11:07:51.320Z,63.80
2018-11-03T11:10:31.851Z,63.90
2018-11-03T11:13:04.422Z,63.90
2018-11-03T11:15:35.315Z,63.40
2018-11-03T11:18:04.454Z,64.00
2018-11-03T11:20:33.418Z,63.40
2018-11-03T11:23:06.827Z,63.70
2018-11-03T11:29:17.190Z,63.30
2018-11-03T11:32:07.417Z,63.70
2018-11-03T11:37:35.926Z,63.30
2018-11-03T11:42:36.405Z,63.10
2018-11-03T11:45:05.308Z,63.00
2018-11-03T11:47:33.890Z,62.80
2018-11-03T11:50:02.513Z,61.90
2018-11-03T11:52:31.183Z,61.30
2018-11-03T11:54:59.828Z,61.30
2018-11-03T11:57:29.523Z,61.40
2018-11-03T11:59:58.160Z,61.60
2018-11-03T12:02:26.853Z,61.60
2018-11-03T12:04:55.554Z,61.70
2018-11-03T12:09:53.060Z,61.70
2018-11-03T12:12:22.518Z,61.40
2018-11-03T12:14:51.236Z,61.40
2018-11-03T12:17:21.156Z,61.00
2018-11-03T12:19:50.081Z,60.50
2018-11-03T12:22:19.590Z,61.40
2018-11-03T12:24:50.598Z,61.30
2018-11-03T12:32:16.885Z,59.10
2018-11-03T12:34:45.674Z,60.50
2018-11-03T12:37:14.595Z,60.60
2018-11-03T12:39:43.389Z,60.60
2018-11-03T12:44:40.501Z,60.70
2018-11-03T12:47:09.276Z,60.70
2018-11-03T12:49:39.867Z,60.40
2018-11-03T12:52:11.085Z,60.40
2018-11-03T12:54:40.180Z,60.10
2018-11-03T12:57:21.287Z,60.20
2018-11-03T12:59:50.735Z,60.10
2018-11-03T13:02:20.532Z,60.00
2018-11-03T13:04:50.040Z,59.40
2018-11-03T13:09:48.704Z,58.90
2018-11-03T13:12:21.670Z,58.80
2018-11-03T13:17:32.213Z,58.20
2018-11-03T13:20:16.530Z,57.30
2018-11-03T13:22:52.094Z,56.60
2018-11-03T13:25:39.781Z,57.00
2018-11-03T13:28:32.178Z,56.10
2018-11-03T13:31:01.475Z,56.30
2018-11-03T13:33:30.154Z,56.70
2018-11-03T13:36:01.655Z,57.00
2018-11-03T13:38:31.062Z,57.00
2018-11-03T13:41:00.713Z,57.70
2018-11-03T13:43:29.370Z,57.80
2018-11-03T13:45:57.957Z,58.00
2018-11-03T13:48:26.507Z,57.60
2018-11-03T13:50:56.086Z,57.60
2018-11-03T13:53:24.807Z,57.60
2018-11-03T13:55:54.209Z,57.50
2018-11-03T13:58:22.853Z,57.30
2018-11-03T14:00:51.485Z,56.70
2018-11-03T14:03:20.152Z,57.70
2018-11-03T14:05:48.913Z,58.80
2018-11-03T14:08:17.689Z,58.70
2018-11-03T14:10:46.297Z,58.70
2018-11-03T14:13:14.982Z,59.30
2018-11-03T14:15:43.606Z,59.30
2018-11-03T14:18:12.325Z,59.30
2018-11-03T14:20:40.925Z,59.40
2018-11-03T14:23:09.745Z,59.50
2018-11-03T14:25:38.272Z,59.10
2018-11-03T14:28:06.933Z,58.90
2018-11-03T14:30:35.526Z,58.90
2018-11-03T14:33:04.379Z,58.80
2018-11-03T14:35:34.013Z,58.90
2018-11-03T14:38:02.863Z,58.80
2018-11-03T14:40:31.956Z,58.80
2018-11-03T14:43:00.862Z,58.60
2018-11-03T14:45:33.624Z,58.70
2018-11-03T14:48:02.936Z,58.80
2018-11-03T14:50:33.690Z,59.00
2018-11-03T14:53:02.554Z,58.80
2018-11-03T14:55:33.425Z,58.80
2018-11-03T14:58:03.836Z,58.90
2018-11-03T15:00:36.405Z,58.90
2018-11-03T15:03:06.795Z,59.10
2018-11-03T15:05:35.375Z,59.10
2018-11-03T15:08:04.316Z,58.90
2018-11-03T15:10:36.464Z,58.90
2018-11-03T15:13:06.995Z,58.40
2018-11-03T15:18:05.859Z,58.00
2018-11-03T15:20:37.058Z,58.20
2018-11-03T15:23:06.239Z,58.10
2018-11-03T15:25:35.755Z,58.10
2018-11-03T15:28:04.491Z,57.90
2018-11-03T15:30:33.077Z,57.70
2018-11-03T15:33:06.851Z,57.50
2018-11-03T15:35:39.083Z,57.50
2018-11-03T15:38:07.788Z,57.60
2018-11-03T15:40:36.513Z,57.70
2018-11-03T15:43:05.411Z,57.70
2018-11-03T15:48:07.254Z,57.60
2018-11-03T15:53:10.013Z,57.40
2018-11-03T15:55:40.003Z,57.30
2018-11-03T15:58:09.785Z,56.90
2018-11-03T16:03:13.486Z,56.50
2018-11-03T16:05:42.291Z,56.30
2018-11-03T16:08:12.029Z,56.80
2018-11-03T16:13:10.080Z,57.50
2018-11-03T16:15:39.153Z,56.90
2018-11-03T16:18:08.298Z,56.70
2018-11-03T16:20:37.124Z,55.80
2018-11-03T16:23:09.402Z,56.00
2018-11-03T16:25:40.078Z,56.70
2018-11-03T16:30:44.808Z,57.00
2018-11-03T16:35:43.933Z,57.30
2018-11-03T16:38:12.650Z,57.00
2018-11-03T16:40:41.426Z,57.30
2018-11-03T16:43:11.091Z,57.60
2018-11-03T16:45:40.965Z,57.80
2018-11-03T16:48:10.186Z,57.60
2018-11-03T16:50:39.094Z,57.70
2018-11-03T16:56:00.372Z,58.20
2018-11-03T16:58:29.729Z,58.80
2018-11-03T17:00:58.685Z,58.60
2018-11-03T17:03:27.917Z,58.60
2018-11-03T17:08:33.084Z,59.30
2018-11-03T17:13:30.203Z,59.50
2018-11-03T17:15:59.294Z,59.60
2018-11-03T17:18:29.610Z,59.30
2018-11-03T17:20:59.016Z,59.50
2018-11-03T17:23:27.693Z,59.80
2018-11-03T17:28:25.604Z,59.70
2018-11-03T17:30:54.549Z,59.70
2018-11-03T17:36:14.517Z,59.80
2018-11-03T17:38:43.121Z,59.90
2018-11-03T17:41:13.692Z,60.20
2018-11-03T17:43:42.839Z,59.90
2018-11-03T17:46:12.700Z,60.10
2018-11-03T17:48:44.097Z,60.30
2018-11-03T17:51:39.683Z,60.30
2018-11-03T17:54:21.224Z,60.50
2018-11-03T17:56:51.680Z,60.80
2018-11-03T17:59:29.172Z,60.90
2018-11-03T18:02:00.897Z,61.10
2018-11-03T18:07:46.943Z,61.20
2018-11-03T18:10:19.726Z,60.60
2018-11-03T18:12:49.019Z,60.90
2018-11-03T18:15:17.831Z,61.00
2018-11-03T18:17:47.981Z,60.60
2018-11-03T18:20:16.716Z,60.90
2018-11-03T18:22:45.400Z,61.10
2018-11-03T18:25:15.961Z,61.10
2018-11-03T18:27:45.649Z,60.90
2018-11-03T18:30:14.574Z,61.80
2018-11-03T18:32:43.143Z,61.80
2018-11-03T18:35:12.104Z,61.70
2018-11-03T18:37:40.734Z,61.80
2018-11-03T18:40:10.825Z,61.90
2018-11-03T18:42:40.525Z,61.60
2018-11-03T18:45:10.116Z,61.80
2018-11-03T18:47:38.799Z,61.60
2018-11-03T18:50:10.285Z,61.20
2018-11-03T18:52:39.073Z,60.40
2018-11-03T18:55:08.232Z,60.70
2018-11-03T18:57:36.847Z,61.20
2018-11-03T19:00:06.581Z,61.30
2018-11-03T19:05:03.484Z,61.30
2018-11-03T19:07:32.036Z,61.40
2018-11-03T19:10:00.684Z,61.70
2018-11-03T19:12:29.314Z,62.30
2018-11-03T19:15:01.710Z,62.10
2018-11-03T19:17:31.058Z,61.70
2018-11-03T19:19:59.597Z,61.70
2018-11-03T19:22:28.236Z,62.30
2018-11-03T19:24:56.913Z,62.30
2018-11-03T19:27:25.545Z,62.60
2018-11-03T19:29:54.353Z,63.10
2018-11-03T19:32:24.135Z,63.20
2018-11-03T19:34:53.381Z,62.90
2018-11-03T19:39:50.780Z,63.10
2018-11-03T19:42:19.612Z,62.90
2018-11-03T19:44:48.607Z,62.80
2018-11-03T19:47:17.203Z,62.70
2018-11-03T19:49:46.244Z,63.50
2018-11-03T19:52:16.591Z,62.90
2018-11-03T19:54:45.299Z,62.80
2018-11-03T19:57:13.859Z,62.90
2018-11-03T19:59:42.484Z,63.10
2018-11-03T20:02:11.200Z,63.00
2018-11-03T20:04:39.833Z,62.90
2018-11-03T20:07:08.544Z,62.80
2018-11-03T20:09:37.210Z,62.80
2018-11-03T20:12:06.805Z,62.80
2018-11-03T20:14:35.536Z,62.60
2018-11-03T20:17:04.473Z,62.60
2018-11-03T20:19:33.909Z,62.70
2018-11-03T20:22:02.467Z,62.80
2018-11-03T20:24:30.984Z,62.60
2018-11-03T20:27:00.112Z,62.20
2018-11-03T20:29:30.455Z,62.20
2018-11-03T20:31:59.177Z,62.40
2018-11-03T20:34:27.603Z,62.60
2018-11-03T20:36:56.214Z,62.50
2018-11-03T20:39:35.686Z,62.40
2018-11-03T20:42:04.717Z,62.60
2018-11-03T20:44:33.282Z,62.90
2018-11-03T20:47:01.862Z,63.10
2018-11-03T20:49:30.528Z,63.10
2018-11-03T20:51:59.877Z,62.90
2018-11-03T20:54:28.517Z,63.80
2018-11-03T20:56:57.037Z,63.40
2018-11-03T20:59:25.713Z,63.50
2018-11-03T21:01:54.303Z,63.70
2018-11-03T21:04:23.719Z,63.90
2018-11-03T21:06:52.917Z,64.20
2018-11-03T21:09:21.616Z,64.10
2018-11-03T21:11:50.232Z,64.30
2018-11-03T21:14:18.887Z,64.50
2018-11-03T21:16:47.840Z,64.50
2018-11-03T21:19:16.383Z,64.40
2018-11-03T21:21:45.001Z,64.20
2018-11-03T21:24:13.719Z,64.50
2018-11-03T21:26:42.276Z,64.80
2018-11-03T21:29:10.889Z,64.80
2018-11-03T21:31:39.501Z,65.00
2018-11-03T21:34:08.612Z,65.00
2018-11-03T21:36:37.466Z,65.10
2018-11-03T21:39:08.188Z,65.10
2018-11-03T21:41:38.083Z,65.40
2018-11-03T21:44:06.839Z,65.40
2018-11-03T21:46:36.461Z,65.20
2018-11-03T21:51:34.114Z,65.20
2018-11-03T21:54:03.344Z,65.50
2018-11-03T21:56:33.142Z,65.40
2018-11-03T21:59:01.925Z,65.70
2018-11-03T22:01:37.110Z,66.00
2018-11-03T22:04:06.165Z,66.20
2018-11-03T22:06:34.740Z,66.50
2018-11-03T22:11:33.456Z,66.90
2018-11-03T22:14:02.262Z,66.70
2018-11-03T22:16:30.987Z,66.60
2018-11-03T22:19:00.544Z,66.20
2018-11-03T22:21:30.597Z,66.50
2018-11-03T22:23:59.793Z,66.60
2018-11-03T22:26:28.417Z,66.50
2018-11-03T22:28:57.091Z,66.50
2018-11-03T22:31:25.808Z,66.50
2018-11-03T22:33:54.368Z,66.60
2018-11-03T22:36:23.020Z,66.70
2018-11-03T22:38:51.545Z,67.00
2018-11-03T22:41:20.420Z,67.30
2018-11-03T22:43:49.122Z,67.50
2018-11-03T22:46:17.793Z,67.40
2018-11-03T22:51:15.646Z,67.40
2018-11-03T22:53:45.778Z,67.50
2018-11-03T22:58:43.272Z,68.20
2018-11-03T23:01:12.304Z,67.50
2018-11-03T23:03:40.842Z,67.40
2018-11-03T23:06:09.368Z,67.40
2018-11-03T23:08:38.721Z,67.40
2018-11-03T23:11:07.374Z,67.40
2018-11-03T23:13:36.000Z,67.20
2018-11-03T23:18:32.738Z,67.30
2018-11-03T23:21:01.305Z,67.30
2018-11-03T23:23:30.934Z,67.70
2018-11-03T23:25:59.767Z,67.90
2018-11-03T23:28:29.024Z,67.70
2018-11-03T23:30:57.685Z,67.70
2018-11-03T23:33:26.303Z,67.70
2018-11-03T23:35:55.915Z,68.10
2018-11-03T23:38:24.446Z,68.20
2018-11-03T23:40:53.086Z,68.40
2018-11-03T23:43:21.709Z,68.30
2018-11-03T23:45:50.417Z,68.60
2018-11-03T23:48:20.136Z,68.60
2018-11-03T23:50:48.824Z,68.90
2018-11-03T23:55:45.840Z,69.80
2018-11-03T23:58:14.388Z,69.00
